Lake Annette, Missouri
Current Conditions -  °F | °C
As of 7:53 AM on Monday 24 Nov 2014 (Local Time) from KOJC Reporting Station
Clear Clear  
Wind Chill: 24°   Ceiling: Unl
Heat Index: 32°   Visibility: 10mi
Dew Point: 23°   Wind: 10mph
Humidity: 69%   Direction: 280°W
Pressure: 29.68"   Gusts: 17mph
Location:  38.6151°N, 94.4966°W
Report Text: KOJC 241353Z 28009G15KT 10SM CLR 00/M05 A2968 RMK AO2 SLP057 T00001050
Loading
Personal Weather Stations






























Interactive Weather Map New forecast layout! Learn more

10-Day Weather Forecast

Advertisements
Track Severe Weather on mobile